sensor_id;sensor_type;location;lat;lon;timestamp;pressure;altitude;pressure_sealevel;temperature;humidity
20368;BME280;10343;52.402;9.796;2023-06-14T00:02:13;101068.31;;;28.10;26.20
20368;BME280;10343;52.402;9.796;2023-06-14T00:04:42;101075.81;;;27.77;26.27
20368;BME280;10343;52.402;9.796;2023-06-14T00:07:10;101080.94;;;26.55;28.03
20368;BME280;10343;52.402;9.796;2023-06-14T00:09:40;101069.88;;;27.52;26.66
20368;BME280;10343;52.402;9.796;2023-06-14T00:12:09;101080.97;;;27.18;27.19
20368;BME280;10343;52.402;9.796;2023-06-14T00:14:37;101073.22;;;26.92;27.83
20368;BME280;10343;52.402;9.796;2023-06-14T00:17:06;101081.56;;;27.43;27.32
20368;BME280;10343;52.402;9.796;2023-06-14T00:19:35;101077.38;;;27.70;27.02
20368;BME280;10343;52.402;9.796;2023-06-14T00:22:04;101078.13;;;27.20;27.51
20368;BME280;10343;52.402;9.796;2023-06-14T00:24:32;101073.81;;;27.17;27.45
20368;BME280;10343;52.402;9.796;2023-06-14T00:27:00;101081.28;;;27.46;26.81
20368;BME280;10343;52.402;9.796;2023-06-14T00:29:28;101082.34;;;27.34;27.21
20368;BME280;10343;52.402;9.796;2023-06-14T00:31:57;101078.25;;;27.18;27.43
20368;BME280;10343;52.402;9.796;2023-06-14T00:34:27;101088.78;;;26.37;28.34
20368;BME280;10343;52.402;9.796;2023-06-14T00:36:55;101080.50;;;27.13;27.54
20368;BME280;10343;52.402;9.796;2023-06-14T00:39:23;101083.00;;;26.30;28.54
20368;BME280;10343;52.402;9.796;2023-06-14T00:41:51;101088.16;;;26.33;28.43
20368;BME280;10343;52.402;9.796;2023-06-14T00:44:19;101087.75;;;26.82;27.78
20368;BME280;10343;52.402;9.796;2023-06-14T00:46:48;101090.88;;;26.77;27.83
20368;BME280;10343;52.402;9.796;2023-06-14T00:49:17;101089.63;;;26.05;28.93
20368;BME280;10343;52.402;9.796;2023-06-14T00:51:47;101083.16;;;26.50;28.08
20368;BME280;10343;52.402;9.796;2023-06-14T00:54:15;101080.41;;;26.28;28.58
20368;BME280;10343;52.402;9.796;2023-06-14T00:56:43;101086.75;;;27.04;27.43
20368;BME280;10343;52.402;9.796;2023-06-14T00:59:12;101097.03;;;25.80;29.52
20368;BME280;10343;52.402;9.796;2023-06-14T01:01:40;101088.63;;;25.83;29.65
20368;BME280;10343;52.402;9.796;2023-06-14T01:04:08;101098.56;;;26.28;29.17
20368;BME280;10343;52.402;9.796;2023-06-14T01:06:41;101094.63;;;26.21;28.97
20368;BME280;10343;52.402;9.796;2023-06-14T01:09:18;101095.28;;;25.56;30.01
20368;BME280;10343;52.402;9.796;2023-06-14T01:12:00;101090.75;;;26.35;28.82
20368;BME280;10343;52.402;9.796;2023-06-14T01:14:31;101093.94;;;26.40;28.64
20368;BME280;10343;52.402;9.796;2023-06-14T01:17:02;101099.69;;;26.14;29.03
20368;BME280;10343;52.402;9.796;2023-06-14T01:19:30;101099.47;;;25.60;29.76
20368;BME280;10343;52.402;9.796;2023-06-14T01:22:01;101102.94;;;25.74;29.75
20368;BME280;10343;52.402;9.796;2023-06-14T01:24:31;101107.03;;;25.46;30.45
20368;BME280;10343;52.402;9.796;2023-06-14T01:27:02;101095.28;;;25.79;30.00
20368;BME280;10343;52.402;9.796;2023-06-14T01:29:30;101103.19;;;25.71;30.10
20368;BME280;10343;52.402;9.796;2023-06-14T01:32:00;101094.19;;;25.36;30.42
20368;BME280;10343;52.402;9.796;2023-06-14T01:34:30;101091.72;;;25.45;30.67
20368;BME280;10343;52.402;9.796;2023-06-14T01:37:00;101100.72;;;25.56;30.39
20368;BME280;10343;52.402;9.796;2023-06-14T01:39:32;101091.06;;;25.86;29.89
20368;BME280;10343;52.402;9.796;2023-06-14T01:42:01;101092.66;;;26.23;29.52
20368;BME280;10343;52.402;9.796;2023-06-14T01:44:30;101094.94;;;26.39;29.28
20368;BME280;10343;52.402;9.796;2023-06-14T01:47:01;101095.69;;;26.41;29.10
20368;BME280;10343;52.402;9.796;2023-06-14T01:49:29;101095.41;;;26.44;29.18
20368;BME280;10343;52.402;9.796;2023-06-14T01:51:56;101096.56;;;26.74;28.84
20368;BME280;10343;52.402;9.796;2023-06-14T01:54:25;101107.22;;;25.99;29.77
20368;BME280;10343;52.402;9.796;2023-06-14T01:56:55;101098.00;;;25.90;30.00
20368;BME280;10343;52.402;9.796;2023-06-14T01:59:23;101098.84;;;25.91;30.05
20368;BME280;10343;52.402;9.796;2023-06-14T02:01:52;101100.22;;;25.97;30.02
20368;BME280;10343;52.402;9.796;2023-06-14T02:04:20;101108.88;;;26.13;29.93
20368;BME280;10343;52.402;9.796;2023-06-14T02:06:48;101104.22;;;26.36;29.78
20368;BME280;10343;52.402;9.796;2023-06-14T02:09:17;101101.16;;;26.62;29.26
20368;BME280;10343;52.402;9.796;2023-06-14T02:11:45;101096.97;;;26.25;29.58
20368;BME280;10343;52.402;9.796;2023-06-14T02:14:14;101098.75;;;26.04;30.08
20368;BME280;10343;52.402;9.796;2023-06-14T02:16:43;101098.75;;;25.58;30.58
20368;BME280;10343;52.402;9.796;2023-06-14T02:19:16;101101.97;;;25.64;30.54
20368;BME280;10343;52.402;9.796;2023-06-14T02:21:44;101106.78;;;25.60;30.79
20368;BME280;10343;52.402;9.796;2023-06-14T02:24:13;101099.47;;;26.06;30.13
20368;BME280;10343;52.402;9.796;2023-06-14T02:26:41;101112.81;;;25.75;30.60
20368;BME280;10343;52.402;9.796;2023-06-14T02:29:15;101115.75;;;25.49;31.03
20368;BME280;10343;52.402;9.796;2023-06-14T02:31:43;101112.78;;;25.41;31.17
20368;BME280;10343;52.402;9.796;2023-06-14T02:34:13;101118.84;;;25.78;30.78
20368;BME280;10343;52.402;9.796;2023-06-14T02:36:43;101115.25;;;26.23;29.93
20368;BME280;10343;52.402;9.796;2023-06-14T02:39:11;101118.72;;;25.57;30.87
20368;BME280;10343;52.402;9.796;2023-06-14T02:41:39;101116.25;;;25.77;31.04
20368;BME280;10343;52.402;9.796;2023-06-14T02:44:07;101116.50;;;25.40;31.40
20368;BME280;10343;52.402;9.796;2023-06-14T02:46:36;101109.69;;;25.91;30.57
20368;BME280;10343;52.402;9.796;2023-06-14T02:49:04;101117.38;;;25.52;31.31
20368;BME280;10343;52.402;9.796;2023-06-14T02:51:32;101125.41;;;25.87;30.64
20368;BME280;10343;52.402;9.796;2023-06-14T02:54:00;101125.16;;;25.68;31.03
20368;BME280;10343;52.402;9.796;2023-06-14T02:56:28;101129.13;;;25.64;30.96
20368;BME280;10343;52.402;9.796;2023-06-14T02:58:57;101132.31;;;25.69;30.89
20368;BME280;10343;52.402;9.796;2023-06-14T03:01:25;101138.22;;;25.85;30.94
20368;BME280;10343;52.402;9.796;2023-06-14T03:04:06;101137.97;;;26.00;30.52
20368;BME280;10343;52.402;9.796;2023-06-14T03:06:37;101141.69;;;25.42;31.28
20368;BME280;10343;52.402;9.796;2023-06-14T03:09:07;101147.75;;;25.68;31.28
20368;BME280;10343;52.402;9.796;2023-06-14T03:11:38;101148.13;;;25.75;30.92
20368;BME280;10343;52.402;9.796;2023-06-14T03:14:06;101145.16;;;25.55;31.15
20368;BME280;10343;52.402;9.796;2023-06-14T03:16:36;101149.97;;;24.81;32.43
20368;BME280;10343;52.402;9.796;2023-06-14T03:19:06;101145.38;;;24.57;32.77
20368;BME280;10343;52.402;9.796;2023-06-14T03:21:34;101162.31;;;24.61;33.19
20368;BME280;10343;52.402;9.796;2023-06-14T03:24:03;101159.94;;;24.80;32.72
20368;BME280;10343;52.402;9.796;2023-06-14T03:26:33;101162.28;;;25.09;32.23
20368;BME280;10343;52.402;9.796;2023-06-14T03:29:04;101163.91;;;25.58;31.62
20368;BME280;10343;52.402;9.796;2023-06-14T03:31:33;101169.84;;;25.17;32.23
20368;BME280;10343;52.402;9.796;2023-06-14T03:34:04;101168.19;;;25.03;32.29
20368;BME280;10343;52.402;9.796;2023-06-14T03:36:34;101172.88;;;25.12;32.35
20368;BME280;10343;52.402;9.796;2023-06-14T03:39:02;101168.81;;;25.06;32.09
20368;BME280;10343;52.402;9.796;2023-06-14T03:41:31;101171.97;;;24.65;32.64
20368;BME280;10343;52.402;9.796;2023-06-14T03:43:59;101169.28;;;25.00;32.36
20368;BME280;10343;52.402;9.796;2023-06-14T03:46:27;101173.91;;;25.22;31.99
20368;BME280;10343;52.402;9.796;2023-06-14T03:48:55;101175.16;;;25.30;31.80
20368;BME280;10343;52.402;9.796;2023-06-14T03:51:23;101174.63;;;25.13;31.99
20368;BME280;10343;52.402;9.796;2023-06-14T03:53:53;101170.31;;;25.57;31.32
20368;BME280;10343;52.402;9.796;2023-06-14T03:56:42;101174.13;;;25.55;31.41
20368;BME280;10343;52.402;9.796;2023-06-14T03:59:10;101175.72;;;25.46;31.77
20368;BME280;10343;52.402;9.796;2023-06-14T04:01:38;101181.19;;;24.86;32.93
20368;BME280;10343;52.402;9.796;2023-06-14T04:04:14;101182.13;;;24.37;33.39
20368;BME280;10343;52.402;9.796;2023-06-14T04:06:43;101185.91;;;24.96;32.76
20368;BME280;10343;52.402;9.796;2023-06-14T04:09:16;101190.38;;;24.59;33.24
20368;BME280;10343;52.402;9.796;2023-06-14T04:11:45;101183.22;;;25.07;32.56
20368;BME280;10343;52.402;9.796;2023-06-14T04:14:13;101188.47;;;26.36;30.63
20368;BME280;10343;52.402;9.796;2023-06-14T04:16:41;101191.03;;;27.25;29.40
20368;BME280;10343;52.402;9.796;2023-06-14T04:19:10;101190.44;;;28.16;28.11
20368;BME280;10343;52.402;9.796;2023-06-14T04:21:38;101193.50;;;28.42;27.93
20368;BME280;10343;52.402;9.796;2023-06-14T04:24:08;101189.00;;;28.82;26.82
20368;BME280;10343;52.402;9.796;2023-06-14T04:26:43;101190.75;;;28.93;27.14
20368;BME280;10343;52.402;9.796;2023-06-14T04:29:14;101189.66;;;28.45;27.60
20368;BME280;10343;52.402;9.796;2023-06-14T04:31:47;101194.16;;;28.85;26.62
20368;BME280;10343;52.402;9.796;2023-06-14T04:34:16;101190.72;;;26.86;29.33
20368;BME280;10343;52.402;9.796;2023-06-14T04:36:52;101205.53;;;26.93;29.48
20368;BME280;10343;52.402;9.796;2023-06-14T04:39:28;101210.53;;;25.52;31.31
20368;BME280;10343;52.402;9.796;2023-06-14T04:41:59;101216.13;;;25.26;32.05
20368;BME280;10343;52.402;9.796;2023-06-14T04:44:30;101221.09;;;25.08;32.47
20368;BME280;10343;52.402;9.796;2023-06-14T04:47:03;101226.28;;;25.36;32.17
20368;BME280;10343;52.402;9.796;2023-06-14T04:49:33;101224.13;;;24.55;33.31
20368;BME280;10343;52.402;9.796;2023-06-14T04:52:01;101225.44;;;25.47;32.36
20368;BME280;10343;52.402;9.796;2023-06-14T04:54:48;101231.13;;;24.71;33.44
20368;BME280;10343;52.402;9.796;2023-06-14T04:57:20;101225.41;;;24.13;34.63
20368;BME280;10343;52.402;9.796;2023-06-14T04:59:51;101226.78;;;24.31;34.41
20368;BME280;10343;52.402;9.796;2023-06-14T05:02:24;101223.56;;;25.36;32.47
20368;BME280;10343;52.402;9.796;2023-06-14T05:04:53;101223.75;;;25.21;32.74
20368;BME280;10343;52.402;9.796;2023-06-14T05:07:24;101224.19;;;24.80;33.13
20368;BME280;10343;52.402;9.796;2023-06-14T05:09:52;101219.69;;;25.85;32.16
20368;BME280;10343;52.402;9.796;2023-06-14T05:12:21;101230.69;;;25.72;32.14
20368;BME280;10343;52.402;9.796;2023-06-14T05:14:50;101234.13;;;25.63;32.28
20368;BME280;10343;52.402;9.796;2023-06-14T05:17:20;101235.72;;;25.66;31.94
20368;BME280;10343;52.402;9.796;2023-06-14T05:19:49;101241.88;;;25.21;32.94
20368;BME280;10343;52.402;9.796;2023-06-14T05:22:17;101241.34;;;25.98;31.59
20368;BME280;10343;52.402;9.796;2023-06-14T05:24:45;101241.06;;;24.83;33.51
20368;BME280;10343;52.402;9.796;2023-06-14T05:27:14;101251.56;;;24.64;33.83
20368;BME280;10343;52.402;9.796;2023-06-14T05:29:44;101247.81;;;25.02;33.56
20368;BME280;10343;52.402;9.796;2023-06-14T05:32:12;101245.69;;;26.23;31.65
20368;BME280;10343;52.402;9.796;2023-06-14T05:34:43;101246.50;;;26.58;31.00
20368;BME280;10343;52.402;9.796;2023-06-14T05:37:11;101247.00;;;25.95;31.72
20368;BME280;10343;52.402;9.796;2023-06-14T05:39:39;101249.78;;;26.06;31.53
20368;BME280;10343;52.402;9.796;2023-06-14T05:42:07;101246.06;;;26.30;31.59
20368;BME280;10343;52.402;9.796;2023-06-14T05:44:36;101249.75;;;26.52;31.24
20368;BME280;10343;52.402;9.796;2023-06-14T05:47:05;101250.88;;;26.26;31.63
20368;BME280;10343;52.402;9.796;2023-06-14T05:49:34;101241.78;;;26.83;30.59
20368;BME280;10343;52.402;9.796;2023-06-14T05:52:03;101253.72;;;26.25;31.69
20368;BME280;10343;52.402;9.796;2023-06-14T05:54:31;101256.19;;;26.39;31.43
20368;BME280;10343;52.402;9.796;2023-06-14T05:56:59;101251.81;;;25.33;33.14
20368;BME280;10343;52.402;9.796;2023-06-14T05:59:29;101255.38;;;25.34;33.21
20368;BME280;10343;52.402;9.796;2023-06-14T06:01:57;101255.06;;;25.97;32.20
20368;BME280;10343;52.402;9.796;2023-06-14T06:04:26;101253.72;;;26.48;31.75
20368;BME280;10343;52.402;9.796;2023-06-14T06:06:54;101246.13;;;26.85;30.76
20368;BME280;10343;52.402;9.796;2023-06-14T06:09:22;101251.97;;;27.67;29.63
20368;BME280;10343;52.402;9.796;2023-06-14T06:11:50;101260.25;;;26.45;31.30
20368;BME280;10343;52.402;9.796;2023-06-14T06:14:20;101262.00;;;25.30;33.41
20368;BME280;10343;52.402;9.796;2023-06-14T06:16:48;101257.31;;;25.56;32.67
20368;BME280;10343;52.402;9.796;2023-06-14T06:19:16;101250.88;;;26.49;31.68
20368;BME280;10343;52.402;9.796;2023-06-14T06:21:45;101262.13;;;25.28;33.23
20368;BME280;10343;52.402;9.796;2023-06-14T06:24:14;101260.47;;;25.97;32.43
20368;BME280;10343;52.402;9.796;2023-06-14T06:26:42;101255.13;;;25.84;32.08
20368;BME280;10343;52.402;9.796;2023-06-14T06:29:10;101266.69;;;26.33;31.82
20368;BME280;10343;52.402;9.796;2023-06-14T06:31:39;101255.88;;;26.88;31.08
20368;BME280;10343;52.402;9.796;2023-06-14T06:34:10;101254.22;;;26.97;30.66
20368;BME280;10343;52.402;9.796;2023-06-14T06:36:38;101262.41;;;26.97;30.85
20368;BME280;10343;52.402;9.796;2023-06-14T06:39:07;101265.66;;;27.55;30.04
20368;BME280;10343;52.402;9.796;2023-06-14T06:41:37;101268.22;;;27.24;29.97
20368;BME280;10343;52.402;9.796;2023-06-14T06:44:06;101283.25;;;26.30;31.31
20368;BME280;10343;52.402;9.796;2023-06-14T06:46:34;101282.03;;;25.87;32.41
20368;BME280;10343;52.402;9.796;2023-06-14T06:49:07;101283.25;;;26.30;31.36
20368;BME280;10343;52.402;9.796;2023-06-14T06:51:35;101279.38;;;27.21;30.22
20368;BME280;10343;52.402;9.796;2023-06-14T06:54:03;101280.47;;;26.98;30.59
20368;BME280;10343;52.402;9.796;2023-06-14T06:56:34;101283.97;;;27.21;30.07
20368;BME280;10343;52.402;9.796;2023-06-14T06:59:02;101290.84;;;26.92;30.35
20368;BME280;10343;52.402;9.796;2023-06-14T07:01:30;101287.78;;;26.97;30.58
20368;BME280;10343;52.402;9.796;2023-06-14T07:04:00;101303.22;;;26.97;30.36
20368;BME280;10343;52.402;9.796;2023-06-14T07:06:29;101300.97;;;25.53;32.33
20368;BME280;10343;52.402;9.796;2023-06-14T07:08:57;101303.66;;;25.41;32.18
20368;BME280;10343;52.402;9.796;2023-06-14T07:11:28;101290.03;;;26.47;30.92
20368;BME280;10343;52.402;9.796;2023-06-14T07:13:57;101293.88;;;26.78;30.58
20368;BME280;10343;52.402;9.796;2023-06-14T07:16:25;101311.03;;;26.10;31.54
20368;BME280;10343;52.402;9.796;2023-06-14T07:18:53;101298.19;;;26.81;30.74
20368;BME280;10343;52.402;9.796;2023-06-14T07:21:21;101296.16;;;27.38;29.91
20368;BME280;10343;52.402;9.796;2023-06-14T07:23:49;101297.38;;;28.08;28.69
20368;BME280;10343;52.402;9.796;2023-06-14T07:26:17;101296.34;;;28.61;28.29
20368;BME280;10343;52.402;9.796;2023-06-14T07:28:45;101296.53;;;27.87;29.00
20368;BME280;10343;52.402;9.796;2023-06-14T07:31:15;101308.56;;;26.87;30.23
20368;BME280;10343;52.402;9.796;2023-06-14T07:33:45;101306.63;;;25.85;31.33
20368;BME280;10343;52.402;9.796;2023-06-14T07:36:13;101306.19;;;26.14;31.35
20368;BME280;10343;52.402;9.796;2023-06-14T07:38:41;101296.06;;;28.03;28.39
20368;BME280;10343;52.402;9.796;2023-06-14T07:41:09;101287.19;;;28.01;28.34
20368;BME280;10343;52.402;9.796;2023-06-14T07:43:37;101308.38;;;27.00;29.54
20368;BME280;10343;52.402;9.796;2023-06-14T07:46:05;101304.19;;;27.07;29.34
20368;BME280;10343;52.402;9.796;2023-06-14T07:48:36;101299.72;;;27.71;28.45
20368;BME280;10343;52.402;9.796;2023-06-14T07:51:04;101288.97;;;28.52;28.01
20368;BME280;10343;52.402;9.796;2023-06-14T07:53:32;101305.44;;;27.03;29.66
20368;BME280;10343;52.402;9.796;2023-06-14T07:56:00;101306.81;;;25.59;31.38
20368;BME280;10343;52.402;9.796;2023-06-14T07:58:29;101301.00;;;26.90;30.05
20368;BME280;10343;52.402;9.796;2023-06-14T08:00:57;101294.94;;;27.31;28.99
20368;BME280;10343;52.402;9.796;2023-06-14T08:03:26;101293.72;;;27.56;28.58
20368;BME280;10343;52.402;9.796;2023-06-14T08:05:55;101290.91;;;28.00;28.30
20368;BME280;10343;52.402;9.796;2023-06-14T08:08:23;101290.91;;;28.00;28.00
20368;BME280;10343;52.402;9.796;2023-06-14T08:10:51;101291.06;;;27.66;28.53
20368;BME280;10343;52.402;9.796;2023-06-14T08:13:19;101298.28;;;28.09;28.32
20368;BME280;10343;52.402;9.796;2023-06-14T08:15:47;101302.28;;;27.93;27.81
20368;BME280;10343;52.402;9.796;2023-06-14T08:18:15;101296.31;;;28.21;27.21
20368;BME280;10343;52.402;9.796;2023-06-14T08:20:43;101299.88;;;28.11;27.75
20368;BME280;10343;52.402;9.796;2023-06-14T08:23:13;101298.25;;;28.40;27.72
20368;BME280;10343;52.402;9.796;2023-06-14T08:25:42;101299.81;;;28.63;27.70
20368;BME280;10343;52.402;9.796;2023-06-14T08:28:10;101309.84;;;28.01;27.82
20368;BME280;10343;52.402;9.796;2023-06-14T08:30:38;101301.63;;;27.38;28.64
20368;BME280;10343;52.402;9.796;2023-06-14T08:33:06;101298.19;;;28.20;27.67
20368;BME280;10343;52.402;9.796;2023-06-14T08:35:43;101301.38;;;28.25;27.81
20368;BME280;10343;52.402;9.796;2023-06-14T08:38:12;101298.03;;;29.03;26.37
20368;BME280;10343;52.402;9.796;2023-06-14T08:40:41;101304.50;;;28.21;27.50
20368;BME280;10343;52.402;9.796;2023-06-14T08:43:09;101304.63;;;28.50;27.16
20368;BME280;10343;52.402;9.796;2023-06-14T08:45:38;101296.75;;;29.95;25.04
20368;BME280;10343;52.402;9.796;2023-06-14T08:48:07;101300.50;;;29.75;25.57
20368;BME280;10343;52.402;9.796;2023-06-14T08:50:40;101293.31;;;28.95;26.50
20368;BME280;10343;52.402;9.796;2023-06-14T08:53:23;101293.59;;;28.52;26.79
20368;BME280;10343;52.402;9.796;2023-06-14T08:55:52;101293.66;;;28.40;26.66
20368;BME280;10343;52.402;9.796;2023-06-14T08:58:20;101304.25;;;29.15;25.85
20368;BME280;10343;52.402;9.796;2023-06-14T09:00:51;101297.84;;;28.85;26.42
20368;BME280;10343;52.402;9.796;2023-06-14T09:03:24;101291.06;;;29.30;25.49
20368;BME280;10343;52.402;9.796;2023-06-14T09:05:56;101297.94;;;29.63;25.28
20368;BME280;10343;52.402;9.796;2023-06-14T09:08:27;101297.63;;;29.67;25.61
20368;BME280;10343;52.402;9.796;2023-06-14T09:10:57;101287.03;;;29.54;25.51
20368;BME280;10343;52.402;9.796;2023-06-14T09:13:26;101308.50;;;28.88;25.81
20368;BME280;10343;52.402;9.796;2023-06-14T09:15:57;101311.81;;;27.99;26.69
20368;BME280;10343;52.402;9.796;2023-06-14T09:18:34;101306.28;;;29.62;25.04
20368;BME280;10343;52.402;9.796;2023-06-14T09:21:02;101305.47;;;30.56;23.78
20368;BME280;10343;52.402;9.796;2023-06-14T09:23:33;101307.25;;;30.38;23.70
20368;BME280;10343;52.402;9.796;2023-06-14T09:26:07;101303.66;;;29.80;24.64
20368;BME280;10343;52.402;9.796;2023-06-14T09:28:35;101297.06;;;29.43;25.33
20368;BME280;10343;52.402;9.796;2023-06-14T09:31:03;101301.06;;;29.20;25.82
20368;BME280;10343;52.402;9.796;2023-06-14T09:33:32;101310.34;;;28.47;26.51
20368;BME280;10343;52.402;9.796;2023-06-14T09:36:00;101311.31;;;29.47;25.29
20368;BME280;10343;52.402;9.796;2023-06-14T09:38:28;101312.59;;;29.62;24.72
20368;BME280;10343;52.402;9.796;2023-06-14T09:40:58;101313.59;;;29.61;24.88
20368;BME280;10343;52.402;9.796;2023-06-14T09:43:26;101312.00;;;30.36;24.20
20368;BME280;10343;52.402;9.796;2023-06-14T09:45:55;101313.56;;;29.03;25.63
20368;BME280;10343;52.402;9.796;2023-06-14T09:48:23;101309.72;;;29.25;25.57
20368;BME280;10343;52.402;9.796;2023-06-14T09:50:52;101311.41;;;29.94;24.56
20368;BME280;10343;52.402;9.796;2023-06-14T09:53:24;101304.38;;;30.39;24.20
20368;BME280;10343;52.402;9.796;2023-06-14T09:55:52;101301.06;;;29.78;25.04
20368;BME280;10343;52.402;9.796;2023-06-14T09:58:26;101294.41;;;30.76;24.35
20368;BME280;10343;52.402;9.796;2023-06-14T10:00:54;101308.50;;;30.81;23.93
20368;BME280;10343;52.402;9.796;2023-06-14T10:03:26;101286.28;;;30.84;23.87
20368;BME280;10343;52.402;9.796;2023-06-14T10:06:08;101303.34;;;30.03;24.72
20368;BME280;10343;52.402;9.796;2023-06-14T10:08:37;101288.09;;;30.93;23.88
20368;BME280;10343;52.402;9.796;2023-06-14T10:11:08;101296.19;;;29.72;25.50
20368;BME280;10343;52.402;9.796;2023-06-14T10:13:37;101303.66;;;30.37;24.51
20368;BME280;10343;52.402;9.796;2023-06-14T10:16:10;101281.63;;;30.94;24.05
20368;BME280;10343;52.402;9.796;2023-06-14T10:18:45;101282.31;;;30.96;23.98
20368;BME280;10343;52.402;9.796;2023-06-14T10:21:26;101296.84;;;30.51;24.35
20368;BME280;10343;52.402;9.796;2023-06-14T10:23:58;101281.34;;;31.33;23.92
20368;BME280;10343;52.402;9.796;2023-06-14T10:26:28;101281.97;;;31.27;23.85
20368;BME280;10343;52.402;9.796;2023-06-14T10:28:59;101278.00;;;32.88;22.46
20368;BME280;10343;52.402;9.796;2023-06-14T10:31:40;101284.84;;;29.87;25.10
20368;BME280;10343;52.402;9.796;2023-06-14T10:34:09;101282.03;;;30.72;24.29
20368;BME280;10343;52.402;9.796;2023-06-14T10:36:40;101277.56;;;30.43;24.76
20368;BME280;10343;52.402;9.796;2023-06-14T10:39:15;101276.47;;;31.63;23.49
20368;BME280;10343;52.402;9.796;2023-06-14T10:41:51;101272.19;;;31.61;23.77
20368;BME280;10343;52.402;9.796;2023-06-14T10:44:38;101276.97;;;32.38;23.17
20368;BME280;10343;52.402;9.796;2023-06-14T10:47:09;101273.75;;;33.10;22.45
20368;BME280;10343;52.402;9.796;2023-06-14T10:49:39;101284.28;;;31.58;23.50
20368;BME280;10343;52.402;9.796;2023-06-14T10:52:10;101292.88;;;29.78;25.68
20368;BME280;10343;52.402;9.796;2023-06-14T10:57:43;101272.34;;;31.23;23.89
20368;BME280;10343;52.402;9.796;2023-06-14T11:00:21;101269.13;;;32.51;22.87
20368;BME280;10343;52.402;9.796;2023-06-14T11:03:22;101275.53;;;31.73;23.33
20368;BME280;10343;52.402;9.796;2023-06-14T11:05:57;101266.34;;;32.94;22.54
20368;BME280;10343;52.402;9.796;2023-06-14T11:11:42;101269.19;;;32.67;22.56
20368;BME280;10343;52.402;9.796;2023-06-14T11:14:10;101269.09;;;32.94;22.41
20368;BME280;10343;52.402;9.796;2023-06-14T11:16:40;101271.91;;;31.54;23.41
20368;BME280;10343;52.402;9.796;2023-06-14T11:19:08;101267.97;;;32.27;23.07
20368;BME280;10343;52.402;9.796;2023-06-14T11:21:39;101263.47;;;34.42;20.72
20368;BME280;10343;52.402;9.796;2023-06-14T11:24:10;101268.63;;;34.77;19.83
20368;BME280;10343;52.402;9.796;2023-06-14T11:26:39;101268.25;;;33.92;20.96
20368;BME280;10343;52.402;9.796;2023-06-14T11:29:08;101268.53;;;32.05;22.86
20368;BME280;10343;52.402;9.796;2023-06-14T11:31:35;101250.44;;;33.47;21.30
20368;BME280;10343;52.402;9.796;2023-06-14T11:34:05;101261.44;;;33.47;21.70
20368;BME280;10343;52.402;9.796;2023-06-14T11:36:33;101252.38;;;34.19;20.97
20368;BME280;10343;52.402;9.796;2023-06-14T11:39:03;101255.09;;;33.38;21.73
20368;BME280;10343;52.402;9.796;2023-06-14T11:41:34;101241.72;;;34.16;20.67
20368;BME280;10343;52.402;9.796;2023-06-14T11:44:02;101240.97;;;33.66;21.31
20368;BME280;10343;52.402;9.796;2023-06-14T11:46:30;101253.22;;;34.67;20.23
20368;BME280;10343;52.402;9.796;2023-06-14T11:48:58;101243.84;;;34.77;19.89
20368;BME280;10343;52.402;9.796;2023-06-14T11:51:31;101242.94;;;34.53;20.66
20368;BME280;10343;52.402;9.796;2023-06-14T11:53:59;101243.88;;;35.99;19.20
20368;BME280;10343;52.402;9.796;2023-06-14T11:56:29;101251.03;;;34.54;20.32
20368;BME280;10343;52.402;9.796;2023-06-14T11:58:58;101246.41;;;34.55;20.49
20368;BME280;10343;52.402;9.796;2023-06-14T12:01:27;101239.59;;;34.97;19.98
20368;BME280;10343;52.402;9.796;2023-06-14T12:03:54;101246.06;;;36.04;19.25
20368;BME280;10343;52.402;9.796;2023-06-14T12:06:26;101231.78;;;35.32;19.92
20368;BME280;10343;52.402;9.796;2023-06-14T12:09:03;101242.91;;;34.13;21.20
20368;BME280;10343;52.402;9.796;2023-06-14T12:11:35;101235.16;;;34.25;21.04
20368;BME280;10343;52.402;9.796;2023-06-14T12:14:04;101238.75;;;34.97;20.14
20368;BME280;10343;52.402;9.796;2023-06-14T12:16:33;101231.28;;;35.06;20.16
20368;BME280;10343;52.402;9.796;2023-06-14T12:19:12;101229.66;;;34.25;20.98
20368;BME280;10343;52.402;9.796;2023-06-14T12:21:41;101238.59;;;34.27;21.54
20368;BME280;10343;52.402;9.796;2023-06-14T12:24:12;101240.13;;;34.30;21.01
20368;BME280;10343;52.402;9.796;2023-06-14T12:26:41;101220.50;;;35.19;20.72
20368;BME280;10343;52.402;9.796;2023-06-14T12:29:09;101220.66;;;34.40;20.82
20368;BME280;10343;52.402;9.796;2023-06-14T12:31:39;101227.16;;;34.47;20.43
20368;BME280;10343;52.402;9.796;2023-06-14T12:34:07;101227.06;;;33.10;22.18
20368;BME280;10343;52.402;9.796;2023-06-14T12:36:35;101223.81;;;32.98;22.14
20368;BME280;10343;52.402;9.796;2023-06-14T12:39:08;101231.88;;;33.16;22.33
20368;BME280;10343;52.402;9.796;2023-06-14T12:41:37;101221.38;;;34.96;20.29
20368;BME280;10343;52.402;9.796;2023-06-14T12:44:08;101221.72;;;34.70;20.59
20368;BME280;10343;52.402;9.796;2023-06-14T12:46:36;101222.28;;;34.57;20.79
20368;BME280;10343;52.402;9.796;2023-06-14T12:49:07;101227.53;;;35.45;20.31
20368;BME280;10343;52.402;9.796;2023-06-14T12:51:36;101224.91;;;35.28;20.26
20368;BME280;10343;52.402;9.796;2023-06-14T12:54:04;101227.75;;;33.78;21.26
20368;BME280;10343;52.402;9.796;2023-06-14T12:56:32;101209.34;;;33.86;21.90
20368;BME280;10343;52.402;9.796;2023-06-14T12:59:01;101224.13;;;34.25;21.17
20368;BME280;10343;52.402;9.796;2023-06-14T13:01:29;101209.34;;;33.78;21.04
20368;BME280;10343;52.402;9.796;2023-06-14T13:03:57;101207.13;;;34.61;20.62
20368;BME280;10343;52.402;9.796;2023-06-14T13:06:25;101212.91;;;33.95;21.33
20368;BME280;10343;52.402;9.796;2023-06-14T13:08:53;101202.03;;;35.04;20.11
20368;BME280;10343;52.402;9.796;2023-06-14T13:11:24;101195.03;;;35.55;19.74